Time;durP1;ratioP1;P1;durP2;ratioP2;P2;SDS_P1;SDS_P2;PMS_P1;PMS_P2;Temp;Humidity;BMP_temperature;BMP_pressure;BME280_temperature;BME280_humidity;BME280_pressure;Samples;Min_cycle;Max_cycle;Signal;HPM_P1;HPM_P2
2021/03/28 00:00:10;;;;;;;4.00;2.00;;;1.00;99.90;;;;;;5092529;28;20304;-51
2021/03/28 00:02:47;;;;;;;8.43;2.30;;;0.90;99.90;;;;;;5094745;28;20103;-50
2021/03/28 00:05:26;;;;;;;3.75;2.45;;;0.90;99.90;;;;;;5094894;28;20020;-49
2021/03/28 00:07:59;;;;;;;7.78;2.10;;;0.80;99.90;;;;;;5093803;28;20764;-49
2021/03/28 00:10:35;;;;;;;6.30;2.75;;;0.80;99.90;;;;;;5094770;28;20024;-48
2021/03/28 00:13:12;;;;;;;4.38;2.53;;;0.80;99.90;;;;;;5094723;28;20036;-50
2021/03/28 00:15:56;;;;;;;4.95;2.38;;;0.80;99.90;;;;;;5094517;28;20103;-50
2021/03/28 00:18:34;;;;;;;4.85;2.30;;;0.80;99.90;;;;;;5094559;28;20029;-49
2021/03/28 00:21:07;;;;;;;8.02;2.63;;;0.70;99.90;;;;;;5094418;28;20104;-50
2021/03/28 00:23:48;;;;;;;5.88;1.90;;;0.70;99.90;;;;;;5093630;28;20020;-46
2021/03/28 00:26:20;;;;;;;4.18;2.22;;;0.70;99.90;;;;;;5094333;28;20103;-49
2021/03/28 00:28:48;;;;;;;5.80;1.95;;;0.70;99.90;;;;;;5094506;28;20027;-53
2021/03/28 00:31:25;;;;;;;6.05;2.28;;;0.60;99.90;;;;;;5094494;28;20062;-51
2021/03/28 00:34:17;;;;;;;3.78;2.10;;;0.60;99.90;;;;;;5094515;28;20035;-48
2021/03/28 00:36:50;;;;;;;6.30;2.15;;;0.60;99.90;;;;;;5093116;28;20070;-50
2021/03/28 00:39:49;;;;;;;13.02;3.78;;;0.60;99.90;;;;;;5094376;28;20040;-49
2021/03/28 00:42:37;;;;;;;4.53;2.42;;;0.70;99.90;;;;;;5094938;28;20499;-48
2021/03/28 00:45:36;;;;;;;6.47;2.85;;;0.70;99.90;;;;;;5094097;28;20085;-49
2021/03/28 00:48:18;;;;;;;6.13;2.65;;;0.70;99.90;;;;;;5094107;28;20047;-52
2021/03/28 00:50:52;;;;;;;6.03;2.58;;;0.70;99.90;;;;;;5091962;28;20069;-53
2021/03/28 00:53:42;;;;;;;5.68;3.38;;;0.70;99.90;;;;;;5092799;28;20028;-47
2021/03/28 00:56:14;;;;;;;5.50;2.38;;;0.70;99.90;;;;;;5092524;28;20146;-48
2021/03/28 00:58:47;;;;;;;8.75;2.83;;;0.70;99.90;;;;;;5093724;28;20028;-49
2021/03/28 01:01:37;;;;;;;6.05;2.58;;;0.60;99.90;;;;;;5093868;28;20471;-50
2021/03/28 01:04:09;;;;;;;4.72;2.38;;;0.60;99.90;;;;;;5093944;28;20104;-53
2021/03/28 01:06:57;;;;;;;8.07;3.28;;;0.60;99.90;;;;;;5093159;28;20024;-49
2021/03/28 01:09:39;;;;;;;5.93;2.88;;;0.60;99.90;;;;;;5092503;28;20543;-49
2021/03/28 01:12:48;;;;;;;5.63;2.40;;;0.60;99.90;;;;;;5092653;28;20017;-48
2021/03/28 01:15:52;;;;;;;4.78;2.50;;;0.60;99.90;;;;;;5093668;28;20417;-49
2021/03/28 01:18:32;;;;;;;4.35;2.92;;;0.60;99.90;;;;;;5093287;28;20506;-49
2021/03/28 01:21:16;;;;;;;9.05;3.50;;;0.50;99.90;;;;;;5092095;28;20077;-50
2021/03/28 01:23:49;;;;;;;4.90;2.58;;;0.50;99.90;;;;;;5090904;28;20131;-47
2021/03/28 01:26:52;;;;;;;5.78;3.08;;;0.50;99.90;;;;;;5093459;28;20028;-49
2021/03/28 01:29:30;;;;;;;7.00;2.70;;;0.50;99.90;;;;;;5092243;28;20040;-50
2021/03/28 01:32:10;;;;;;;4.97;2.28;;;0.60;99.90;;;;;;5092990;28;20015;-46
2021/03/28 01:35:05;;;;;;;7.93;3.17;;;0.50;99.90;;;;;;5091757;28;20035;-49
2021/03/28 01:37:51;;;;;;;10.98;3.13;;;0.50;99.90;;;;;;5091769;28;20031;-48
2021/03/28 01:40:16;;;;;;;5.85;2.85;;;0.40;99.90;;;;;;5093294;28;20481;-48
2021/03/28 01:43:10;;;;;;;9.50;3.33;;;0.40;99.90;;;;;;5093533;28;20048;-48
2021/03/28 01:45:53;;;;;;;4.05;2.45;;;0.40;99.90;;;;;;5092668;28;20067;-50
2021/03/28 01:48:51;;;;;;;7.38;2.83;;;0.30;99.90;;;;;;5092982;28;20422;-48
2021/03/28 01:51:32;;;;;;;7.82;3.20;;;0.20;99.90;;;;;;5083413;28;20028;-51
2021/03/28 01:54:20;;;;;;;5.53;3.03;;;0.30;99.90;;;;;;5090938;28;20034;-52
2021/03/28 01:56:55;;;;;;;8.15;3.65;;;0.20;99.90;;;;;;5092678;28;20094;-50
2021/03/28 01:59:51;;;;;;;7.85;3.15;;;0.20;99.90;;;;;;5092877;28;20020;-49
2021/03/28 02:02:47;;;;;;;7.85;2.92;;;0.10;99.90;;;;;;5092667;28;20486;-49
2021/03/28 02:05:21;;;;;;;11.13;3.67;;;0.10;99.90;;;;;;5063966;28;20487;-52
2021/03/28 02:07:59;;;;;;;5.40;3.03;;;0.10;99.90;;;;;;5091579;28;20424;-48
2021/03/28 02:10:51;;;;;;;7.45;3.72;;;0.10;99.90;;;;;;5092989;28;20496;-51
2021/03/28 02:13:36;;;;;;;5.85;2.53;;;0.10;99.90;;;;;;5094132;28;20024;-48
2021/03/28 02:16:15;;;;;;;5.38;2.22;;;0.00;99.90;;;;;;5094226;28;20089;-52
2021/03/28 02:19:08;;;;;;;10.93;3.42;;;0.00;99.90;;;;;;5094120;28;20039;-50
2021/03/28 02:22:03;;;;;;;6.85;2.83;;;0.00;99.90;;;;;;5091970;28;20035;-52
2021/03/28 02:24:37;;;;;;;11.90;3.67;;;-0.10;99.90;;;;;;5093059;28;20491;-49
2021/03/28 02:27:11;;;;;;;6.32;3.10;;;-0.10;99.90;;;;;;5093816;28;20487;-52
2021/03/28 02:30:18;;;;;;;6.20;3.08;;;-0.10;99.90;;;;;;5097297;28;20382;-48
2021/03/28 02:32:58;;;;;;;7.78;3.55;;;-0.20;99.90;;;;;;5114165;28;20545;-48
2021/03/28 02:35:59;;;;;;;7.13;3.40;;;-0.20;99.90;;;;;;5114175;28;20025;-52
2021/03/28 02:38:43;;;;;;;5.72;3.13;;;-0.20;99.90;;;;;;5111909;28;20036;-48
2021/03/28 02:41:18;;;;;;;13.73;4.18;;;-0.20;99.90;;;;;;5114093;28;20019;-48
2021/03/28 02:43:48;;;;;;;7.53;2.72;;;-0.20;99.90;;;;;;5113596;28;20085;-54
2021/03/28 02:46:14;;;;;;;9.70;3.13;;;-0.20;99.90;;;;;;5114077;28;20036;-50
2021/03/28 02:49:07;;;;;;;8.52;3.05;;;-0.30;99.90;;;;;;5113993;28;20023;-50
2021/03/28 02:52:01;;;;;;;10.10;3.92;;;-0.30;99.90;;;;;;5113161;28;20131;-52
2021/03/28 02:55:07;;;;;;;7.40;3.60;;;-0.30;99.90;;;;;;5113587;28;20031;-48
2021/03/28 02:58:09;;;;;;;4.63;2.50;;;-0.30;99.90;;;;;;5113792;27;20462;-49
2021/03/28 03:00:58;;;;;;;6.82;3.40;;;-0.40;99.90;;;;;;5113701;28;20257;-48
2021/03/28 03:04:01;;;;;;;11.30;3.38;;;-0.40;99.90;;;;;;5113704;28;20110;-49
2021/03/28 03:06:36;;;;;;;8.75;3.75;;;-0.50;99.90;;;;;;5113622;28;20028;-48
2021/03/28 03:09:21;;;;;;;9.65;3.45;;;-0.50;99.90;;;;;;5113367;28;20489;-50
2021/03/28 03:12:21;;;;;;;9.40;2.88;;;-0.50;99.90;;;;;;5113333;28;20546;-50
2021/03/28 03:15:23;;;;;;;6.07;2.75;;;-0.50;99.90;;;;;;5113672;28;20480;-48
2021/03/28 03:18:13;;;;;;;7.55;3.15;;;-0.50;99.90;;;;;;5113422;28;20089;-48
2021/03/28 03:21:21;;;;;;;7.68;2.67;;;-0.50;99.90;;;;;;5113451;28;20024;-48
2021/03/28 03:24:01;;;;;;;8.60;3.08;;;-0.50;99.90;;;;;;5112331;28;20030;-52
2021/03/28 03:26:42;;;;;;;4.60;2.95;;;-0.40;99.90;;;;;;5113004;28;20059;-48
2021/03/28 03:29:46;;;;;;;6.60;2.83;;;-0.50;99.90;;;;;;5113189;28;20107;-48
2021/03/28 03:32:27;;;;;;;9.05;3.22;;;-0.50;99.90;;;;;;5072567;28;20021;-52
2021/03/28 03:35:20;;;;;;;9.10;3.00;;;-0.50;99.90;;;;;;5072252;28;20188;-50
2021/03/28 03:37:49;;;;;;;6.63;2.85;;;-0.40;99.90;;;;;;5071649;28;20383;-48
2021/03/28 03:40:42;;;;;;;9.77;3.25;;;-0.40;99.90;;;;;;5072401;28;20054;-48
2021/03/28 03:43:37;;;;;;;5.93;2.80;;;-0.40;99.90;;;;;;5072373;28;20497;-49
2021/03/28 03:46:07;;;;;;;5.13;2.72;;;-0.40;99.90;;;;;;5072599;28;20044;-48
2021/03/28 03:48:50;;;;;;;11.32;2.65;;;-0.30;99.90;;;;;;5072305;28;20553;-53
2021/03/28 03:51:48;;;;;;;11.45;3.55;;;-0.30;99.90;;;;;;5090598;28;20016;-48
2021/03/28 03:54:31;;;;;;;12.93;3.60;;;-0.30;99.90;;;;;;5112915;28;20558;-50
2021/03/28 03:57:11;;;;;;;6.95;2.47;;;-0.30;99.90;;;;;;5111362;28;20028;-48
2021/03/28 04:00:03;;;;;;;5.72;2.97;;;-0.30;99.90;;;;;;5112934;28;20107;-52
2021/03/28 04:03:06;;;;;;;14.32;4.47;;;-0.30;99.90;;;;;;5112908;28;20100;-52
2021/03/28 04:05:50;;;;;;;7.07;3.05;;;-0.20;99.90;;;;;;5113023;28;20023;-48
2021/03/28 04:08:43;;;;;;;10.43;2.90;;;-0.30;99.90;;;;;;5111788;28;20055;-50
2021/03/28 04:11:36;;;;;;;13.27;4.57;;;-0.30;99.90;;;;;;5111359;28;20220;-49
2021/03/28 04:14:17;;;;;;;6.25;2.90;;;-0.30;99.90;;;;;;5112715;28;20087;-49
2021/03/28 04:17:10;;;;;;;13.77;3.70;;;-0.30;99.90;;;;;;5112937;28;20382;-50
2021/03/28 04:19:44;;;;;;;9.10;3.60;;;-0.30;99.90;;;;;;5112739;28;20031;-51
2021/03/28 04:22:29;;;;;;;18.80;5.97;;;-0.30;99.90;;;;;;5111568;28;20102;-49
2021/03/28 04:25:19;;;;;;;8.68;3.00;;;-0.30;99.90;;;;;;5112703;28;20031;-50
2021/03/28 04:27:58;;;;;;;11.45;3.75;;;-0.30;99.90;;;;;;5112542;28;20046;-49
2021/03/28 04:30:49;;;;;;;9.93;3.72;;;-0.30;99.90;;;;;;5112547;28;20031;-49
2021/03/28 04:33:31;;;;;;;11.18;3.10;;;-0.30;99.90;;;;;;5112725;28;20420;-50
2021/03/28 04:35:59;;;;;;;10.70;3.80;;;-0.30;99.90;;;;;;5111219;28;20035;-48
2021/03/28 04:38:55;;;;;;;10.27;3.75;;;-0.30;99.90;;;;;;5111658;28;20035;-50
2021/03/28 04:41:36;;;;;;;10.40;3.67;;;-0.30;99.90;;;;;;5112512;28;20024;-49
2021/03/28 04:44:47;;;;;;;11.90;3.88;;;-0.30;99.90;;;;;;5110990;28;20035;-48
2021/03/28 04:47:39;;;;;;;7.07;3.00;;;-0.30;99.90;;;;;;5098622;28;20050;-49
2021/03/28 04:50:41;;;;;;;6.90;3.10;;;-0.30;99.90;;;;;;5116349;28;20478;-49
2021/03/28 04:53:30;;;;;;;10.27;4.25;;;-0.20;99.90;;;;;;5074332;28;20023;-53
2021/03/28 04:56:34;;;;;;;9.60;2.95;;;-0.20;99.90;;;;;;5075426;28;20111;-50
2021/03/28 04:59:30;;;;;;;9.63;4.05;;;-0.10;99.90;;;;;;5075046;28;20498;-51
2021/03/28 05:02:23;;;;;;;7.70;3.67;;;0.00;99.90;;;;;;5075412;28;20025;-53
2021/03/28 05:05:44;;;;;;;14.68;4.38;;;0.10;99.90;;;;;;5075410;28;20476;-47
2021/03/28 05:08:32;;;;;;;11.90;4.25;;;0.30;99.90;;;;;;5074247;28;20029;-48
2021/03/28 05:11:20;;;;;;;9.15;3.30;;;0.50;99.90;;;;;;5075217;28;20035;-51
2021/03/28 05:14:33;;;;;;;13.15;3.35;;;0.60;99.90;;;;;;5073800;28;20028;-50
2021/03/28 05:17:02;;;;;;;7.50;3.53;;;0.70;99.90;;;;;;5013596;28;20479;-49
2021/03/28 05:19:54;;;;;;;7.40;3.08;;;0.80;99.90;;;;;;5075079;28;20099;-46
2021/03/28 05:22:46;;;;;;;7.60;3.63;;;0.90;99.90;;;;;;5074057;28;20095;-49
2021/03/28 05:25:39;;;;;;;11.75;3.65;;;1.00;99.90;;;;;;5074922;28;20028;-49
2021/03/28 05:28:20;;;;;;;9.85;3.70;;;1.20;99.90;;;;;;5074736;28;20024;-49
2021/03/28 05:31:06;;;;;;;8.18;3.30;;;1.30;99.90;;;;;;5100444;28;20474;-52
2021/03/28 05:33:51;;;;;;;9.98;2.75;;;1.50;99.90;;;;;;5115450;28;20024;-51
2021/03/28 05:36:34;;;;;;;11.55;3.50;;;1.70;99.90;;;;;;5115341;28;20027;-50
2021/03/28 05:39:22;;;;;;;7.60;3.33;;;1.90;99.90;;;;;;5115241;27;20091;-50
2021/03/28 05:42:19;;;;;;;6.72;3.13;;;2.10;99.90;;;;;;5115162;28;20019;-50
2021/03/28 05:44:59;;;;;;;;;;;2.30;99.90;;;;;;5115431;27;20051;-48
2021/03/28 05:47:54;;;;;;;10.43;3.35;;;2.40;99.90;;;;;;5115170;28;19915;-51
2021/03/28 05:50:57;;;;;;;10.50;3.20;;;2.40;99.90;;;;;;5115011;28;20019;-48
2021/03/28 05:53:44;;;;;;;7.03;3.25;;;2.40;99.90;;;;;;5114130;28;20501;-49
2021/03/28 05:56:27;;;;;;;8.23;3.08;;;2.50;99.90;;;;;;5114949;28;20035;-49
2021/03/28 05:59:18;;;;;;;7.57;2.95;;;2.70;99.90;;;;;;5114632;28;20055;-51
2021/03/28 06:02:00;;;;;;;5.07;3.00;;;3.80;99.90;;;;;;5114834;28;20035;-49
2021/03/28 06:04:50;;;;;;;6.90;2.67;;;4.30;99.90;;;;;;5114798;28;20016;-52
2021/03/28 06:07:37;;;;;;;7.72;2.95;;;4.30;99.90;;;;;;5113878;28;20020;-54
2021/03/28 06:10:27;;;;;;;8.27;2.75;;;4.40;99.90;;;;;;5114570;28;20023;-49
2021/03/28 06:13:04;;;;;;;7.07;3.17;;;5.30;99.90;;;;;;5114769;28;20382;-51
2021/03/28 06:16:04;;;;;;;5.28;2.78;;;6.60;99.90;;;;;;5114336;28;20027;-49
2021/03/28 06:18:35;;;;;;;4.72;2.75;;;7.20;99.90;;;;;;5114623;28;20466;-50
2021/03/28 06:21:27;;;;;;;4.68;2.53;;;7.40;99.90;;;;;;5114602;28;20019;-49
2021/03/28 06:24:15;;;;;;;6.47;2.30;;;7.60;97.50;;;;;;5113095;28;20475;-52
2021/03/28 06:27:12;;;;;;;5.25;2.45;;;7.70;99.90;;;;;;5114632;28;20398;-50
2021/03/28 06:30:11;;;;;;;4.57;2.63;;;7.50;99.90;;;;;;5114239;28;20348;-53
2021/03/28 06:33:01;;;;;;;3.28;2.30;;;7.30;99.90;;;;;;5114313;28;20023;-53
2021/03/28 06:36:05;;;;;;;6.63;2.67;;;7.50;99.90;;;;;;5114023;28;20028;-52
2021/03/28 06:38:40;;;;;;;6.05;2.45;;;7.70;99.90;;;;;;5113237;28;20551;-51
2021/03/28 06:41:23;;;;;;;7.43;2.25;;;8.30;99.80;;;;;;5114135;28;20060;-50
2021/03/28 06:44:30;;;;;;;7.15;3.22;;;8.90;98.30;;;;;;5113847;28;20114;-50
2021/03/28 06:47:16;;;;;;;7.85;2.78;;;9.10;94.50;;;;;;5114156;28;20028;-53
2021/03/28 06:50:02;;;;;;;7.57;2.55;;;9.20;93.00;;;;;;5114017;28;20016;-49
2021/03/28 06:52:51;;;;;;;8.75;3.10;;;9.40;91.40;;;;;;5112860;28;20100;-50
2021/03/28 06:55:33;;;;;;;3.38;2.33;;;9.50;91.40;;;;;;5113660;28;20036;-54
2021/03/28 06:58:04;;;;;;;6.70;2.80;;;9.50;91.40;;;;;;5113904;28;20485;-52
2021/03/28 07:00:48;;;;;;;7.50;2.70;;;9.50;91.10;;;;;;5113424;28;20378;-53
2021/03/28 07:03:41;;;;;;;7.57;3.10;;;9.80;91.10;;;;;;5113643;28;20049;-50
2021/03/28 07:06:32;;;;;;;4.18;2.25;;;10.80;90.10;;;;;;5113733;28;20023;-54
2021/03/28 07:09:39;;;;;;;8.60;2.40;;;11.60;83.60;;;;;;5112899;27;20027;-54
2021/03/28 07:12:32;;;;;;;5.90;2.80;;;12.20;83.20;;;;;;5058312;28;20551;-52
2021/03/28 07:15:12;;;;;;;3.25;2.20;;;12.60;75.40;;;;;;5111961;28;20536;-50
2021/03/28 07:17:56;;;;;;;8.00;2.83;;;12.80;83.20;;;;;;5112299;28;20031;-50
2021/03/28 07:20:52;;;;;;;6.40;2.70;;;12.80;77.10;;;;;;5113299;28;20075;-53
2021/03/28 07:23:32;;;;;;;5.55;2.83;;;12.20;73.20;;;;;;5112339;28;20024;-49
2021/03/28 07:26:25;;;;;;;6.88;2.88;;;11.90;78.70;;;;;;5113327;28;20094;-50
2021/03/28 07:29:15;;;;;;;7.43;2.92;;;11.90;76.20;;;;;;5113407;28;20023;-50
2021/03/28 07:32:09;;;;;;;5.45;2.40;;;11.60;79.40;;;;;;5072386;28;20074;-50
2021/03/28 07:34:56;;;;;;;3.58;1.92;;;11.40;78.40;;;;;;5072563;28;20031;-51
2021/03/28 07:37:37;;;;;;;7.10;2.78;;;11.50;77.40;;;;;;5071748;28;20024;-51
2021/03/28 07:40:27;;;;;;;7.30;2.90;;;11.70;73.70;;;;;;5072445;28;20099;-49
2021/03/28 07:43:28;;;;;;;8.07;2.83;;;11.90;74.80;;;;;;5072569;28;20021;-49
2021/03/28 07:46:17;;;;;;;5.68;2.53;;;11.90;73.60;;;;;;5072381;28;20440;-53
2021/03/28 07:48:57;;;;;;;5.30;2.65;;;11.80;74.10;;;;;;5072597;28;20036;-53
2021/03/28 07:51:47;;;;;;;6.10;3.28;;;11.90;77.20;;;;;;5090362;28;20027;-54
2021/03/28 07:54:48;;;;;;;6.20;2.38;;;12.20;73.20;;;;;;5113140;28;20034;-52
2021/03/28 07:57:55;;;;;;;5.03;2.40;;;12.40;74.10;;;;;;5103762;28;20409;-53
2021/03/28 08:00:58;;;;;;;4.88;2.25;;;12.40;72.50;;;;;;5112734;28;20041;-52
2021/03/28 08:03:56;;;;;;;6.82;2.60;;;12.40;73.80;;;;;;5112430;28;20155;-53
2021/03/28 08:06:49;;;;;;;7.65;2.65;;;12.40;73.50;;;;;;5112285;28;20520;-54
2021/03/28 08:09:22;;;;;;;3.63;2.42;;;12.70;70.80;;;;;;5112838;28;20046;-51
2021/03/28 08:11:53;;;;;;;8.00;2.53;;;12.90;73.70;;;;;;5112821;28;20019;-51
2021/03/28 08:14:57;;;;;;;7.93;3.08;;;13.10;70.60;;;;;;5108740;28;20028;-51
2021/03/28 08:17:41;;;;;;;4.97;2.50;;;13.30;66.30;;;;;;5092193;28;20030;-54
2021/03/28 08:20:32;;;;;;;6.50;2.70;;;13.60;70.70;;;;;;5092361;28;20031;-54
2021/03/28 08:23:13;;;;;;;6.43;3.22;;;14.10;68.20;;;;;;5094680;28;20024;-52
2021/03/28 08:26:29;;;;;;;6.45;2.28;;;14.80;65.10;;;;;;5096283;28;20035;-53
2021/03/28 08:29:22;;;;;;;4.13;1.83;;;15.60;63.50;;;;;;5077953;28;20063;-54
2021/03/28 08:32:01;;;;;;;7.78;2.95;;;16.70;61.70;;;;;;5074741;28;20078;-51
2021/03/28 08:34:27;;;;;;;5.00;2.00;;;17.20;62.50;;;;;;5075696;28;20111;-53
2021/03/28 08:37:18;;;;;;;7.57;2.60;;;17.40;64.00;;;;;;5074974;28;20107;-55
2021/03/28 08:40:12;;;;;;;6.35;2.58;;;17.20;56.40;;;;;;5075688;28;20025;-58
2021/03/28 08:43:01;;;;;;;5.22;2.00;;;16.70;62.80;;;;;;5075468;28;20052;-54
2021/03/28 08:45:45;;;;;;;6.40;2.60;;;16.30;61.10;;;;;;5075203;28;20106;-55
2021/03/28 08:48:27;;;;;;;6.68;2.20;;;15.90;63.20;;;;;;5074382;28;20025;-57
2021/03/28 08:51:16;;;;;;;7.50;2.40;;;15.70;57.20;;;;;;5086928;28;20505;-56
2021/03/28 08:54:04;;;;;;;4.97;2.30;;;15.50;61.20;;;;;;5115294;28;20367;-56
2021/03/28 08:57:06;;;;;;;7.18;2.58;;;15.10;58.50;;;;;;5115980;28;20019;-55
2021/03/28 08:59:59;;;;;;;7.97;2.97;;;14.90;60.00;;;;;;5115970;28;20055;-55
2021/03/28 09:02:55;;;;;;;6.28;2.58;;;14.90;57.20;;;;;;5116084;28;20031;-55
2021/03/28 09:05:36;;;;;;;7.73;2.57;;;14.70;60.40;;;;;;5115863;28;20032;-58
2021/03/28 09:08:48;;;;;;;6.68;2.85;;;14.50;59.20;;;;;;5114805;28;20024;-55
2021/03/28 09:11:55;;;;;;;6.00;2.10;;;14.60;58.50;;;;;;5052843;28;20029;-54
2021/03/28 09:14:33;;;;;;;7.30;2.50;;;14.60;58.90;;;;;;5052910;28;20029;-55
2021/03/28 09:17:22;;;;;;;6.03;2.13;;;14.40;56.60;;;;;;5104934;28;20061;-55
2021/03/28 09:20:36;;;;;;;6.60;2.17;;;14.40;56.60;;;;;;5115711;28;20106;-51
2021/03/28 09:23:34;;;;;;;3.70;1.70;;;14.80;55.20;;;;;;5114229;28;20072;-55
2021/03/28 09:26:39;;;;;;;5.13;1.92;;;15.40;57.50;;;;;;5115665;28;20028;-58
2021/03/28 09:29:35;;;;;;;7.65;2.28;;;15.30;56.10;;;;;;5115630;28;20032;-57
2021/03/28 09:32:38;;;;;;;5.57;2.05;;;15.40;56.70;;;;;;5074271;28;20020;-53
2021/03/28 09:35:35;;;;;;;7.00;2.40;;;15.80;55.70;;;;;;5074676;28;20040;-54
2021/03/28 09:38:22;;;;;;;3.42;1.73;;;15.90;54.50;;;;;;5061395;28;20557;-57
2021/03/28 09:41:11;;;;;;;6.10;2.25;;;16.10;57.20;;;;;;5074639;28;20468;-55
2021/03/28 09:44:11;;;;;;;8.30;2.53;;;16.20;55.60;;;;;;5074449;28;20473;-57
2021/03/28 09:47:01;;;;;;;3.88;1.90;;;16.30;53.70;;;;;;5074493;28;20036;-54
2021/03/28 09:49:33;;;;;;;5.25;1.88;;;16.30;55.10;;;;;;5074269;28;20071;-56
2021/03/28 09:52:16;;;;;;;7.95;2.30;;;16.20;54.90;;;;;;5103173;28;20122;-55
2021/03/28 09:55:21;;;;;;;9.45;2.50;;;16.30;54.90;;;;;;5115047;27;20019;-57
2021/03/28 09:57:47;;;;;;;6.95;2.08;;;16.40;51.40;;;;;;5114882;28;20425;-54
2021/03/28 10:00:21;;;;;;;6.68;1.73;;;16.70;54.10;;;;;;5114967;28;20474;-57
2021/03/28 10:03:14;;;;;;;4.85;1.60;;;17.10;54.30;;;;;;5114796;28;20030;-55
2021/03/28 10:05:40;;;;;;;5.03;2.05;;;17.40;51.20;;;;;;5114651;28;20065;-57
2021/03/28 10:08:11;;;;;;;6.85;1.80;;;17.40;53.70;;;;;;5113560;27;20482;-54
2021/03/28 10:10:58;;;;;;;7.57;2.30;;;17.20;52.20;;;;;;5114685;28;20069;-54
2021/03/28 10:13:24;;;;;;;7.88;2.17;;;16.90;51.40;;;;;;5114606;28;20035;-52
2021/03/28 10:16:15;;;;;;;9.48;2.63;;;16.70;52.30;;;;;;5114380;28;20028;-53
2021/03/28 10:18:46;;;;;;;8.25;3.42;;;16.60;52.60;;;;;;5114526;28;20107;-53
2021/03/28 10:21:39;;;;;;;5.43;2.40;;;16.50;51.40;;;;;;5114410;28;20027;-57
2021/03/28 10:24:37;;;;;;;6.95;2.50;;;16.30;51.00;;;;;;5114628;28;20111;-57
2021/03/28 10:27:23;;;;;;;5.28;2.55;;;16.00;52.70;;;;;;5079758;28;20035;-56
2021/03/28 10:30:11;;;;;;;6.47;2.78;;;15.70;53.10;;;;;;5114371;28;20011;-56
2021/03/28 10:33:07;;;;;;;6.53;2.67;;;15.60;52.10;;;;;;5114119;28;20055;-57
2021/03/28 10:36:02;;;;;;;5.00;2.20;;;15.40;52.70;;;;;;5113726;28;20103;-58
2021/03/28 10:38:40;;;;;;;7.53;2.72;;;15.40;53.10;;;;;;5112997;28;20015;-55
2021/03/28 10:41:59;;;;;;;6.40;2.70;;;15.20;53.40;;;;;;5114165;28;20023;-57
2021/03/28 10:44:49;;;;;;;9.32;2.92;;;14.90;53.60;;;;;;5079256;28;20050;-54
2021/03/28 10:48:03;;;;;;;10.70;3.30;;;14.60;54.20;;;;;;5113967;28;20051;-56
2021/03/28 10:50:29;;;;;;;6.75;2.85;;;14.40;53.70;;;;;;5113571;28;20024;-58
2021/03/28 10:53:19;;;;;;;9.38;2.90;;;14.30;55.20;;;;;;5112536;28;20027;-56
2021/03/28 10:56:22;;;;;;;8.95;2.90;;;14.20;54.50;;;;;;5113565;28;20036;-55
2021/03/28 10:59:06;;;;;;;6.72;2.63;;;14.20;54.80;;;;;;5113835;28;20031;-58
2021/03/28 11:02:01;;;;;;;11.00;2.15;;;14.10;54.90;;;;;;5113528;28;20024;-53
2021/03/28 11:05:04;;;;;;;8.60;2.83;;;14.10;55.40;;;;;;5102061;28;20044;-57
2021/03/28 11:07:36;;;;;;;8.50;2.55;;;14.20;54.40;;;;;;5112359;28;20042;-55
2021/03/28 11:10:27;;;;;;;7.63;2.53;;;14.30;55.40;;;;;;5113767;28;20094;-56
2021/03/28 11:13:30;;;;;;;5.95;2.40;;;14.40;54.70;;;;;;5113310;28;20012;-56
2021/03/28 11:16:04;;;;;;;6.50;2.15;;;14.40;54.80;;;;;;5113341;28;20028;-53
2021/03/28 11:18:54;;;;;;;7.05;3.35;;;14.40;55.20;;;;;;5113654;28;20020;-58
2021/03/28 11:21:43;;;;;;;16.00;3.95;;;14.40;54.70;;;;;;5110684;28;20019;-58
2021/03/28 11:24:16;;;;;;;10.27;3.10;;;14.50;54.70;;;;;;5105086;28;20043;-55
2021/03/28 11:27:04;;;;;;;7.72;2.80;;;14.60;54.50;;;;;;5113226;28;20153;-54
2021/03/28 11:29:36;;;;;;;8.35;2.60;;;14.80;55.10;;;;;;5113250;28;20201;-56
2021/03/28 11:32:07;;;;;;;5.18;2.28;;;15.00;54.10;;;;;;5112818;28;20627;-55
2021/03/28 11:34:58;;;;;;;5.13;2.33;;;15.20;53.60;;;;;;5113242;28;20118;-56
2021/03/28 11:37:48;;;;;;;4.47;1.80;;;15.30;53.30;;;;;;5111762;28;20030;-55
2021/03/28 11:40:38;;;;;;;6.30;1.90;;;15.30;53.70;;;;;;5113246;28;20023;-57
2021/03/28 11:43:06;;;;;;;6.47;2.25;;;15.10;52.40;;;;;;5113044;28;20102;-57
2021/03/28 11:45:46;;;;;;;5.97;2.13;;;14.80;53.10;;;;;;5111868;28;20486;-55
2021/03/28 11:48:40;;;;;;;6.80;2.10;;;14.60;53.50;;;;;;5113065;28;20020;-56
2021/03/28 11:51:26;;;;;;;8.90;3.08;;;14.50;54.00;;;;;;5112675;28;20027;-57
2021/03/28 11:54:15;;;;;;;6.38;2.47;;;14.60;53.60;;;;;;5112939;28;20032;-52
2021/03/28 11:56:53;;;;;;;9.30;3.03;;;14.60;54.00;;;;;;5112043;28;20073;-55
2021/03/28 11:59:19;;;;;;;9.63;3.05;;;14.50;53.30;;;;;;5112982;28;20024;-55
2021/03/28 12:02:02;;;;;;;8.27;2.50;;;14.50;53.50;;;;;;5112947;28;20020;-53
2021/03/28 12:04:36;;;;;;;7.82;2.80;;;14.30;53.90;;;;;;5113024;28;20016;-56
2021/03/28 12:07:23;;;;;;;4.80;2.13;;;14.20;54.30;;;;;;5111275;28;20023;-57
2021/03/28 12:10:14;;;;;;;6.45;2.15;;;14.30;54.90;;;;;;5112798;28;20041;-54
2021/03/28 12:12:40;;;;;;;8.88;3.42;;;14.40;54.50;;;;;;5105351;28;20061;-57
2021/03/28 12:15:42;;;;;;;5.18;2.35;;;14.40;54.40;;;;;;5112760;28;20117;-57
2021/03/28 12:18:23;;;;;;;8.27;2.17;;;14.30;53.20;;;;;;5112743;28;20027;-55
2021/03/28 12:21:07;;;;;;;9.27;2.95;;;14.20;54.00;;;;;;5112781;28;20019;-55
2021/03/28 12:23:38;;;;;;;5.95;2.67;;;14.30;54.50;;;;;;5111336;28;20019;-57
2021/03/28 12:26:12;;;;;;;10.65;2.75;;;14.30;53.90;;;;;;5112587;28;20031;-54
2021/03/28 12:28:47;;;;;;;5.47;2.55;;;14.40;54.40;;;;;;5112977;28;20131;-55
2021/03/28 12:31:32;;;;;;;8.55;2.00;;;14.40;54.10;;;;;;5112591;28;20538;-58
2021/03/28 12:34:31;;;;;;;3.15;1.83;;;14.50;54.50;;;;;;5112663;28;20098;-55
2021/03/28 12:37:14;;;;;;;5.65;2.20;;;14.50;54.10;;;;;;5111052;28;20028;-56
2021/03/28 12:39:43;;;;;;;8.60;2.22;;;14.60;54.70;;;;;;5112590;28;20462;-56
2021/03/28 12:42:32;;;;;;;5.53;2.08;;;14.70;54.60;;;;;;5112452;28;20023;-52
2021/03/28 12:45:07;;;;;;;5.22;1.95;;;14.70;54.20;;;;;;5112293;28;20090;-54
2021/03/28 12:47:38;;;;;;;4.55;1.70;;;14.80;54.20;;;;;;5110631;28;20028;-57
2021/03/28 12:50:21;;;;;;;5.10;2.15;;;14.80;54.40;;;;;;5112026;28;20039;-56
2021/03/28 12:53:01;;;;;;;6.65;2.05;;;14.90;54.60;;;;;;5070690;28;20024;-53
2021/03/28 12:55:50;;;;;;;5.50;1.85;;;15.00;54.40;;;;;;5075868;28;20064;-56
2021/03/28 12:58:25;;;;;;;4.15;1.48;;;15.00;54.40;;;;;;5087283;28;20040;-54
2021/03/28 13:00:53;;;;;;;5.20;1.77;;;15.00;54.70;;;;;;5090155;28;20417;-55
2021/03/28 13:03:54;;;;;;;7.15;2.20;;;14.80;54.70;;;;;;5083747;28;20267;-54
2021/03/28 13:06:58;;;;;;;5.13;1.75;;;14.70;54.80;;;;;;5070315;28;20431;-58
2021/03/28 13:09:31;;;;;;;4.18;1.40;;;14.60;54.70;;;;;;5051345;28;20036;-55
2021/03/28 13:12:21;;;;;;;4.25;2.35;;;14.60;55.10;;;;;;5050666;28;20116;-53
2021/03/28 13:14:49;;;;;;;6.30;1.80;;;14.50;54.90;;;;;;5068894;28;20036;-56
2021/03/28 13:17:14;;;;;;;6.35;2.08;;;14.50;55.40;;;;;;5092256;28;20510;-55
2021/03/28 13:19:42;;;;;;;5.60;2.17;;;14.40;55.50;;;;;;5093901;28;20024;-56
2021/03/28 13:22:36;;;;;;;4.97;1.90;;;14.30;55.50;;;;;;5092821;28;20132;-57
2021/03/28 13:25:26;;;;;;;5.50;2.05;;;14.30;55.70;;;;;;5093174;28;20028;-57
2021/03/28 13:28:19;;;;;;;6.50;1.70;;;14.30;55.50;;;;;;5088221;28;20514;-57
2021/03/28 13:30:47;;;;;;;7.47;1.73;;;14.40;55.90;;;;;;5085928;28;20044;-55
2021/03/28 13:33:33;;;;;;;4.53;1.42;;;14.40;55.70;;;;;;5093343;28;20112;-56
2021/03/28 13:36:08;;;;;;;4.80;1.75;;;14.50;55.50;;;;;;5093269;28;20024;-57
2021/03/28 13:38:34;;;;;;;5.22;1.60;;;14.50;55.90;;;;;;5092249;28;20441;-54
2021/03/28 13:41:23;;;;;;;4.03;1.75;;;14.40;55.90;;;;;;5093088;28;20031;-56
2021/03/28 13:43:49;;;;;;;4.35;1.50;;;14.40;56.10;;;;;;5093080;28;20040;-57
2021/03/28 13:46:18;;;;;;;3.47;1.40;;;14.50;56.30;;;;;;5093140;28;20050;-56
2021/03/28 13:48:47;;;;;;;5.30;1.65;;;14.50;56.50;;;;;;5093097;28;20486;-57
2021/03/28 13:51:22;;;;;;;7.75;2.03;;;14.50;56.70;;;;;;5096260;28;20028;-55
2021/03/28 13:54:05;;;;;;;6.75;1.80;;;14.60;56.50;;;;;;5092766;28;20024;-54
2021/03/28 13:56:50;;;;;;;5.38;2.03;;;14.70;57.00;;;;;;5093016;28;20028;-57
2021/03/28 13:59:23;;;;;;;6.13;1.40;;;14.80;56.90;;;;;;5079976;28;20073;-55
2021/03/28 14:01:51;;;;;;;4.20;1.40;;;14.80;57.00;;;;;;5092632;28;20020;-54
2021/03/28 14:04:38;;;;;;;5.38;1.83;;;14.80;57.20;;;;;;5084319;28;20020;-57
2021/03/28 14:07:24;;;;;;;4.35;1.77;;;14.70;57.20;;;;;;5091714;28;20032;-57
2021/03/28 14:09:55;;;;;;;5.70;2.40;;;14.60;57.50;;;;;;5092488;28;20111;-54
2021/03/28 14:12:43;;;;;;;4.70;1.60;;;14.40;57.70;;;;;;5092508;28;20107;-57
2021/03/28 14:15:20;;;;;;;3.70;2.03;;;14.30;58.50;;;;;;5092558;28;20028;-58
2021/03/28 14:18:01;;;;;;;5.35;2.47;;;14.20;58.60;;;;;;5092621;28;20417;-57
2021/03/28 14:20:32;;;;;;;5.90;2.10;;;14.10;59.00;;;;;;5092771;28;20016;-55
2021/03/28 14:23:09;;;;;;;4.45;1.85;;;13.90;59.20;;;;;;5091148;28;20139;-55
2021/03/28 14:25:54;;;;;;;3.20;1.30;;;13.70;59.90;;;;;;5092421;28;20032;-57